Time;durP1;ratioP1;P1;durP2;ratioP2;P2;SDS_P1;SDS_P2;PMS_P1;PMS_P2;Temp;Humidity;BMP_temperature;BMP_pressure;BME280_temperature;BME280_humidity;BME280_pressure;Samples;Min_cycle;Max_cycle;Signal;HPM_P1;HPM_P2
2023/10/21 00:00:59;;;;;;;13.20;6.40;;;13.20;99.90;;;;;;5050325;28;20020;-74
2023/10/21 00:03:25;;;;;;;14.02;6.45;;;13.20;99.90;;;;;;5050921;28;20108;-74
2023/10/21 00:05:51;;;;;;;13.13;7.40;;;13.10;99.90;;;;;;5059477;28;20020;-75
2023/10/21 00:08:17;;;;;;;10.95;6.63;;;13.10;99.90;;;;;;5062243;28;20547;-74
2023/10/21 00:10:42;;;;;;;13.95;6.70;;;13.00;99.90;;;;;;5050411;28;20017;-75
2023/10/21 00:13:08;;;;;;;11.15;6.18;;;12.90;99.90;;;;;;5050580;28;20021;-75
2023/10/21 00:15:34;;;;;;;13.13;6.60;;;12.90;99.90;;;;;;5050255;28;20432;-74
2023/10/21 00:17:59;;;;;;;11.10;5.97;;;12.90;99.90;;;;;;5057240;28;20514;-74
2023/10/21 00:20:25;;;;;;;11.93;6.85;;;12.90;99.90;;;;;;5059896;28;20032;-74
2023/10/21 00:22:51;;;;;;;12.13;6.00;;;12.90;99.90;;;;;;5053955;28;20032;-74
2023/10/21 00:25:18;;;;;;;12.63;6.72;;;12.80;99.90;;;;;;5051854;28;20120;-74
2023/10/21 00:27:43;;;;;;;13.35;5.90;;;12.80;99.90;;;;;;5049864;28;20100;-74
2023/10/21 00:30:11;;;;;;;10.02;5.60;;;12.80;99.90;;;;;;5051465;28;20027;-74
2023/10/21 00:32:37;;;;;;;13.60;5.80;;;12.70;99.90;;;;;;5063898;28;20029;-74
2023/10/21 00:35:06;;;;;;;11.82;5.93;;;12.70;99.90;;;;;;5051604;28;20016;-74
2023/10/21 00:37:31;;;;;;;11.45;6.25;;;12.70;99.90;;;;;;5063578;28;20538;-74
2023/10/21 00:39:57;;;;;;;13.50;6.65;;;12.70;99.90;;;;;;5052748;28;20029;-74
2023/10/21 00:42:23;;;;;;;11.55;5.88;;;12.70;99.90;;;;;;5049767;28;20025;-74
2023/10/21 00:44:48;;;;;;;14.63;7.05;;;12.70;99.90;;;;;;5051196;28;20461;-74
2023/10/21 00:47:15;;;;;;;15.05;7.82;;;12.60;99.90;;;;;;5049727;28;20782;-74
2023/10/21 00:49:42;;;;;;;12.82;6.35;;;12.70;99.90;;;;;;5065333;28;20112;-75
2023/10/21 00:52:07;;;;;;;8.68;5.03;;;12.60;99.90;;;;;;5053469;28;20058;-74
2023/10/21 00:54:33;;;;;;;8.60;5.95;;;12.60;99.90;;;;;;5062276;28;20032;-74
2023/10/21 00:56:59;;;;;;;14.68;6.15;;;12.60;99.90;;;;;;5064435;28;20049;-74
2023/10/21 00:59:25;;;;;;;13.65;7.40;;;12.60;99.90;;;;;;5051037;28;20056;-74
2023/10/21 01:01:50;;;;;;;11.65;6.95;;;12.60;99.90;;;;;;5050896;28;20025;-74
2023/10/21 01:04:17;;;;;;;12.60;6.20;;;12.70;99.90;;;;;;5050986;28;20079;-74
2023/10/21 01:06:43;;;;;;;16.08;6.88;;;12.70;99.90;;;;;;5050646;28;20078;-74
2023/10/21 01:09:10;;;;;;;12.50;6.20;;;12.60;99.90;;;;;;5064957;28;20501;-74
2023/10/21 01:11:37;;;;;;;11.80;5.20;;;12.60;99.90;;;;;;5050507;28;20021;-74
2023/10/21 01:14:03;;;;;;;11.45;4.70;;;12.60;99.90;;;;;;5049676;28;20521;-74
2023/10/21 01:16:28;;;;;;;10.95;5.00;;;12.60;99.90;;;;;;5050327;28;20024;-74
2023/10/21 01:18:54;;;;;;;11.85;5.30;;;12.60;99.90;;;;;;5063208;28;20539;-74
2023/10/21 01:21:20;;;;;;;9.27;5.00;;;12.60;99.90;;;;;;5056412;28;20020;-74
2023/10/21 01:23:46;;;;;;;11.95;4.72;;;12.60;99.90;;;;;;5059593;28;20017;-74
2023/10/21 01:26:12;;;;;;;7.80;4.30;;;12.60;99.90;;;;;;5050243;28;20027;-74
2023/10/21 01:28:37;;;;;;;9.38;4.78;;;12.60;99.90;;;;;;5050715;28;20486;-74
2023/10/21 01:31:03;;;;;;;8.73;5.03;;;12.60;99.90;;;;;;5050136;28;20029;-74
2023/10/21 01:33:29;;;;;;;9.73;4.72;;;12.60;99.90;;;;;;5050484;28;20486;-74
2023/10/21 01:35:55;;;;;;;8.02;4.60;;;12.60;99.90;;;;;;5050299;28;20025;-74
2023/10/21 01:38:20;;;;;;;11.35;5.30;;;12.60;99.90;;;;;;5064686;28;20025;-74
2023/10/21 01:40:47;;;;;;;7.50;3.85;;;12.60;99.90;;;;;;5050367;28;20025;-74
2023/10/21 01:43:13;;;;;;;8.45;4.28;;;12.70;99.90;;;;;;5050289;28;20063;-74
2023/10/21 01:45:39;;;;;;;8.40;5.03;;;12.70;99.90;;;;;;5050086;28;20435;-74
2023/10/21 01:48:05;;;;;;;8.77;4.68;;;12.70;99.90;;;;;;5064249;28;20013;-74
2023/10/21 01:50:31;;;;;;;10.70;4.57;;;12.80;99.90;;;;;;5050416;28;20463;-74
2023/10/21 01:52:57;;;;;;;7.90;4.10;;;12.80;99.90;;;;;;5052800;28;20056;-74
2023/10/21 01:55:23;;;;;;;12.75;5.32;;;12.80;99.90;;;;;;5050130;28;20021;-74
2023/10/21 01:57:50;;;;;;;11.57;4.90;;;12.80;99.90;;;;;;5048743;28;20028;-74
2023/10/21 02:00:19;;;;;;;8.25;4.30;;;12.80;99.90;;;;;;5050321;28;20585;-74
2023/10/21 02:02:54;;;;;;;11.07;4.68;;;12.80;99.90;;;;;;5034720;28;20029;-74
2023/10/21 02:05:22;;;;;;;9.20;4.78;;;12.80;99.90;;;;;;5050422;28;20501;-74
2023/10/21 02:07:48;;;;;;;8.57;4.28;;;12.80;99.90;;;;;;5063924;28;20067;-74
2023/10/21 02:10:14;;;;;;;9.60;5.00;;;12.80;99.90;;;;;;5050259;28;20024;-74
2023/10/21 02:12:39;;;;;;;11.68;4.72;;;12.80;99.90;;;;;;5049544;28;20032;-74
2023/10/21 02:15:11;;;;;;;11.00;5.13;;;12.80;99.90;;;;;;5060437;28;20027;-74
2023/10/21 02:17:38;;;;;;;10.00;4.78;;;12.80;99.90;;;;;;5051326;28;20032;-74
2023/10/21 02:20:04;;;;;;;9.20;4.30;;;12.80;99.90;;;;;;5048798;28;20555;-74
2023/10/21 02:22:34;;;;;;;7.50;3.83;;;12.80;99.90;;;;;;5050517;28;20032;-74
2023/10/21 02:25:00;;;;;;;9.45;4.50;;;12.90;99.90;;;;;;5061204;28;20029;-74
2023/10/21 02:27:26;;;;;;;10.52;4.63;;;12.80;99.90;;;;;;5049539;28;20047;-74
2023/10/21 02:29:51;;;;;;;7.55;4.25;;;12.90;99.90;;;;;;5049036;28;20029;-74
2023/10/21 02:32:17;;;;;;;9.38;4.45;;;12.90;99.90;;;;;;5049334;28;20509;-74
2023/10/21 02:34:43;;;;;;;13.07;5.10;;;12.90;99.90;;;;;;5049860;28;20025;-74
2023/10/21 02:37:09;;;;;;;9.25;5.18;;;12.90;99.90;;;;;;5057574;28;20044;-74
2023/10/21 02:39:35;;;;;;;9.95;5.05;;;12.90;99.90;;;;;;5054323;28;20154;-75
2023/10/21 02:42:01;;;;;;;11.43;5.78;;;12.90;99.90;;;;;;5049860;28;20025;-74
2023/10/21 02:44:27;;;;;;;10.75;5.38;;;12.90;99.90;;;;;;5052013;28;20081;-74
2023/10/21 02:46:52;;;;;;;9.50;5.20;;;12.90;99.90;;;;;;5053182;28;20048;-74
2023/10/21 02:49:18;;;;;;;11.85;5.35;;;12.90;99.90;;;;;;5053957;28;20579;-74
2023/10/21 02:51:44;;;;;;;8.38;4.45;;;12.90;99.90;;;;;;5052737;28;20048;-74
2023/10/21 02:54:10;;;;;;;8.05;5.43;;;12.90;99.90;;;;;;5053545;28;20494;-74
2023/10/21 02:56:36;;;;;;;9.88;5.22;;;12.90;99.90;;;;;;5052669;28;20053;-74
2023/10/21 02:59:02;;;;;;;8.75;5.35;;;12.90;99.90;;;;;;5053433;28;20040;-74
2023/10/21 03:01:28;;;;;;;8.43;5.68;;;12.90;99.90;;;;;;5053123;28;20371;-74
2023/10/21 03:03:54;;;;;;;7.63;5.45;;;12.90;99.90;;;;;;5053558;28;20057;-74
2023/10/21 03:06:23;;;;;;;10.80;5.90;;;12.90;99.90;;;;;;5053247;28;20141;-74
2023/10/21 03:08:49;;;;;;;10.40;5.35;;;13.00;99.90;;;;;;5053359;28;20036;-74
2023/10/21 03:11:15;;;;;;;9.13;5.30;;;13.00;99.90;;;;;;5052694;28;20025;-74
2023/10/21 03:13:41;;;;;;;8.30;5.18;;;13.00;99.90;;;;;;5052872;28;20101;-74
2023/10/21 03:16:08;;;;;;;7.45;4.90;;;13.00;99.90;;;;;;5052794;28;20096;-74
2023/10/21 03:18:35;;;;;;;8.20;5.30;;;13.00;99.90;;;;;;5052827;28;20060;-74
2023/10/21 03:21:02;;;;;;;9.52;5.10;;;13.00;99.90;;;;;;5052838;28;20060;-74
2023/10/21 03:23:28;;;;;;;7.28;4.10;;;13.00;99.90;;;;;;5052612;28;20096;-74
2023/10/21 03:25:58;;;;;;;14.70;6.00;;;13.00;99.90;;;;;;5052516;28;20028;-74
2023/10/21 03:28:26;;;;;;;11.02;5.45;;;13.00;99.90;;;;;;5052296;28;20024;-74
2023/10/21 03:30:58;;;;;;;10.40;5.55;;;13.10;99.90;;;;;;5051229;28;20409;-74
2023/10/21 03:33:25;;;;;;;12.07;5.05;;;13.00;99.90;;;;;;5037697;28;20497;-73
2023/10/21 03:35:52;;;;;;;12.20;5.70;;;13.10;99.90;;;;;;5052341;28;20108;-74
2023/10/21 03:38:18;;;;;;;7.85;4.90;;;13.10;99.90;;;;;;5050789;28;20112;-74
2023/10/21 03:40:44;;;;;;;7.30;4.15;;;13.10;99.90;;;;;;5053124;28;20037;-74
2023/10/21 03:43:10;;;;;;;10.50;4.45;;;13.20;99.90;;;;;;5052072;28;20504;-73
2023/10/21 03:45:36;;;;;;;7.47;4.00;;;13.10;99.90;;;;;;5052644;28;20028;-74
2023/10/21 03:48:03;;;;;;;11.40;3.97;;;13.20;99.90;;;;;;5051856;28;20033;-74
2023/10/21 03:50:29;;;;;;;6.10;3.58;;;13.20;99.90;;;;;;5052362;28;20013;-73
2023/10/21 03:52:55;;;;;;;7.47;3.95;;;13.20;99.90;;;;;;5050207;28;20081;-74
2023/10/21 03:55:21;;;;;;;9.25;4.35;;;13.20;99.90;;;;;;5051966;28;20094;-73
2023/10/21 03:57:49;;;;;;;7.82;3.85;;;13.30;99.90;;;;;;5051823;28;20482;-73
2023/10/21 04:00:15;;;;;;;8.88;3.80;;;13.30;99.90;;;;;;5052297;28;20024;-74
2023/10/21 04:02:41;;;;;;;7.82;3.58;;;13.30;99.90;;;;;;5051242;28;20467;-74
2023/10/21 04:05:08;;;;;;;8.23;3.60;;;13.30;99.90;;;;;;5052139;28;20040;-73
2023/10/21 04:07:34;;;;;;;7.55;4.20;;;13.30;99.90;;;;;;5051401;28;20080;-73
2023/10/21 04:10:00;;;;;;;9.35;4.13;;;13.40;99.90;;;;;;5050635;28;20237;-73
2023/10/21 04:12:26;;;;;;;9.30;3.75;;;13.40;99.90;;;;;;5051359;28;20104;-73
2023/10/21 04:14:51;;;;;;;8.60;4.45;;;13.40;99.90;;;;;;5051913;28;20127;-74
2023/10/21 04:17:17;;;;;;;8.85;4.40;;;13.40;99.90;;;;;;5051172;28;20025;-74
2023/10/21 04:19:42;;;;;;;6.95;4.18;;;13.40;99.90;;;;;;5037829;28;20025;-74
2023/10/21 04:22:08;;;;;;;7.90;4.40;;;13.40;99.90;;;;;;5051474;28;20036;-74
2023/10/21 04:24:34;;;;;;;7.65;4.72;;;13.40;99.90;;;;;;5051912;28;20722;-74
2023/10/21 04:26:59;;;;;;;10.55;4.80;;;13.30;99.90;;;;;;5051240;28;20079;-74
2023/10/21 04:29:25;;;;;;;10.27;4.90;;;13.30;99.90;;;;;;5051794;28;20058;-74
2023/10/21 04:31:50;;;;;;;11.13;5.15;;;13.30;99.90;;;;;;5059199;28;20380;-74
2023/10/21 04:34:16;;;;;;;12.48;4.78;;;13.30;99.90;;;;;;5056641;28;20056;-74
2023/10/21 04:36:42;;;;;;;6.70;4.47;;;13.30;99.90;;;;;;5051185;28;20568;-74
2023/10/21 04:39:08;;;;;;;9.57;4.75;;;13.30;99.90;;;;;;5050372;28;20029;-75
2023/10/21 04:41:33;;;;;;;6.75;3.95;;;13.20;99.90;;;;;;5051279;28;20130;-74
2023/10/21 04:43:59;;;;;;;8.65;4.85;;;13.20;99.90;;;;;;5050166;28;20021;-74
2023/10/21 04:46:25;;;;;;;8.38;5.03;;;13.20;99.90;;;;;;5051008;28;20486;-75
2023/10/21 04:48:51;;;;;;;10.98;4.60;;;13.20;99.90;;;;;;5051448;28;20393;-74
2023/10/21 04:51:17;;;;;;;13.02;4.35;;;13.20;99.90;;;;;;5051480;28;20029;-75
2023/10/21 04:53:42;;;;;;;6.78;4.28;;;13.10;99.90;;;;;;5050815;28;20021;-74
2023/10/21 04:56:08;;;;;;;12.65;4.72;;;13.10;99.90;;;;;;5050995;28;20459;-74
2023/10/21 04:58:34;;;;;;;9.32;5.00;;;13.10;99.90;;;;;;5049843;28;20024;-74
2023/10/21 05:00:59;;;;;;;9.45;4.93;;;13.10;99.90;;;;;;5051640;28;20013;-74
2023/10/21 05:03:25;;;;;;;6.32;5.07;;;13.10;99.90;;;;;;5049122;28;20025;-74
2023/10/21 05:05:51;;;;;;;10.02;5.75;;;13.10;99.90;;;;;;5050993;28;20045;-74
2023/10/21 05:08:17;;;;;;;10.90;5.60;;;13.10;99.90;;;;;;5050298;28;20497;-74
2023/10/21 05:10:42;;;;;;;9.68;5.30;;;13.10;99.90;;;;;;5049559;28;20039;-74
2023/10/21 05:13:08;;;;;;;10.05;5.47;;;13.10;99.90;;;;;;5058031;28;20034;-75
2023/10/21 05:15:36;;;;;;;9.98;5.32;;;13.10;99.90;;;;;;5057271;28;20033;-74
2023/10/21 05:18:03;;;;;;;9.65;4.70;;;13.10;99.90;;;;;;5050417;28;20428;-74
2023/10/21 05:20:28;;;;;;;9.18;5.60;;;13.10;99.90;;;;;;5061747;28;20025;-74
2023/10/21 05:22:54;;;;;;;9.38;4.88;;;13.10;99.90;;;;;;5051783;28;20486;-75
2023/10/21 05:25:20;;;;;;;9.00;5.18;;;13.10;99.90;;;;;;5050647;28;20540;-74
2023/10/21 05:27:46;;;;;;;9.35;5.25;;;13.10;99.90;;;;;;5049983;28;20095;-74
2023/10/21 05:30:12;;;;;;;11.45;5.22;;;13.10;99.90;;;;;;5049288;28;20437;-74
2023/10/21 05:32:38;;;;;;;13.82;5.35;;;13.10;99.90;;;;;;5050125;28;20033;-74
2023/10/21 05:35:07;;;;;;;13.15;5.70;;;13.10;99.90;;;;;;5050842;28;20024;-74
2023/10/21 05:37:33;;;;;;;12.93;5.07;;;13.10;99.90;;;;;;5050025;28;20059;-74
2023/10/21 05:39:59;;;;;;;6.20;4.50;;;13.10;99.90;;;;;;5050644;28;20056;-74
2023/10/21 05:42:25;;;;;;;11.73;5.50;;;13.00;99.90;;;;;;5049882;28;20033;-74
2023/10/21 05:44:51;;;;;;;9.43;5.47;;;13.10;99.90;;;;;;5050346;28;20436;-75
2023/10/21 05:47:16;;;;;;;12.48;6.30;;;13.10;99.90;;;;;;5049741;28;20021;-74
2023/10/21 05:49:42;;;;;;;8.45;5.45;;;13.00;99.90;;;;;;5050253;28;20032;-74
2023/10/21 05:52:08;;;;;;;9.75;5.85;;;13.10;99.90;;;;;;5052460;28;20111;-74
2023/10/21 05:54:33;;;;;;;13.32;6.55;;;13.00;99.90;;;;;;5061638;28;20021;-74
2023/10/21 05:56:59;;;;;;;12.77;6.10;;;13.00;99.90;;;;;;5049545;28;20870;-74
2023/10/21 05:59:25;;;;;;;9.85;5.03;;;13.00;99.90;;;;;;5050278;28;20474;-74
2023/10/21 06:01:51;;;;;;;16.02;5.97;;;13.10;99.90;;;;;;5049821;28;20036;-74
2023/10/21 06:04:16;;;;;;;9.82;5.90;;;13.00;99.90;;;;;;5049586;28;20041;-75
2023/10/21 06:06:42;;;;;;;14.63;6.45;;;13.00;99.90;;;;;;5048599;28;20033;-75
2023/10/21 06:09:09;;;;;;;14.00;6.10;;;13.00;99.90;;;;;;5048951;28;20029;-75
2023/10/21 06:11:36;;;;;;;9.38;6.60;;;13.00;99.90;;;;;;5049131;28;20474;-75
2023/10/21 06:14:01;;;;;;;14.52;6.07;;;13.00;99.90;;;;;;5049606;28;20041;-74
2023/10/21 06:16:27;;;;;;;15.30;6.57;;;13.00;99.90;;;;;;5050147;28;20135;-75
2023/10/21 06:18:53;;;;;;;10.00;5.90;;;13.00;99.90;;;;;;5051079;28;20025;-75
2023/10/21 06:21:18;;;;;;;12.20;6.10;;;13.00;99.90;;;;;;5052767;28;20521;-75
2023/10/21 06:23:44;;;;;;;10.10;6.10;;;13.00;99.90;;;;;;5052346;28;20175;-75
2023/10/21 06:26:14;;;;;;;12.00;6.60;;;13.00;99.90;;;;;;5054041;28;20016;-75
2023/10/21 06:28:39;;;;;;;11.07;6.13;;;13.00;99.90;;;;;;5052032;28;20028;-75
2023/10/21 06:31:05;;;;;;;12.48;5.50;;;13.00;99.90;;;;;;5053936;28;20017;-75
2023/10/21 06:33:31;;;;;;;16.55;5.60;;;13.00;99.90;;;;;;5053419;28;20017;-74
2023/10/21 06:35:56;;;;;;;10.35;5.78;;;13.00;99.90;;;;;;5052422;28;20036;-75
2023/10/21 06:38:22;;;;;;;8.90;4.55;;;13.00;99.90;;;;;;5044217;28;20020;-75
2023/10/21 06:40:48;;;;;;;11.32;5.85;;;13.00;99.90;;;;;;5047337;28;20032;-75
2023/10/21 06:43:14;;;;;;;15.05;6.05;;;13.00;99.90;;;;;;5050941;28;20017;-75
2023/10/21 06:45:39;;;;;;;15.48;6.85;;;13.00;99.90;;;;;;5051290;28;20037;-75
2023/10/21 06:48:05;;;;;;;10.10;6.25;;;13.00;99.90;;;;;;5046480;28;20025;-74
2023/10/21 06:50:31;;;;;;;11.02;5.85;;;13.10;99.90;;;;;;5047934;28;20029;-74
2023/10/21 06:52:57;;;;;;;12.55;5.75;;;13.10;99.90;;;;;;5045957;28;20021;-74
2023/10/21 06:55:23;;;;;;;14.93;7.22;;;13.10;99.90;;;;;;5036395;28;20029;-75
2023/10/21 06:57:51;;;;;;;13.27;6.28;;;13.10;99.90;;;;;;5033163;28;20091;-74
2023/10/21 07:00:17;;;;;;;11.70;6.50;;;13.10;99.90;;;;;;5036345;28;20051;-75
2023/10/21 07:02:42;;;;;;;12.18;6.70;;;13.20;99.90;;;;;;5038356;28;20080;-75
2023/10/21 07:05:11;;;;;;;11.15;6.57;;;13.20;99.90;;;;;;5060620;28;20025;-74
2023/10/21 07:07:40;;;;;;;10.98;5.63;;;13.20;99.90;;;;;;5045282;28;20482;-75
2023/10/21 07:10:07;;;;;;;11.68;6.10;;;13.20;99.90;;;;;;5053218;28;20021;-75
2023/10/21 07:12:34;;;;;;;15.02;7.20;;;13.20;99.90;;;;;;5052300;28;20017;-75
2023/10/21 07:15:00;;;;;;;12.63;7.75;;;13.20;99.90;;;;;;5053309;28;20071;-75
2023/10/21 07:17:26;;;;;;;11.60;6.88;;;13.20;99.90;;;;;;5052510;28;20461;-75
2023/10/21 07:19:52;;;;;;;13.55;7.20;;;13.30;99.90;;;;;;5051830;28;20140;-74
2023/10/21 07:22:17;;;;;;;13.93;7.65;;;13.30;99.90;;;;;;5053028;28;20083;-75
2023/10/21 07:24:43;;;;;;;15.15;7.88;;;13.30;99.90;;;;;;5052915;28;20471;-74
2023/10/21 07:27:09;;;;;;;12.13;6.88;;;13.30;99.90;;;;;;5052512;28;20071;-73
2023/10/21 07:29:34;;;;;;;11.88;5.93;;;13.40;99.90;;;;;;5051849;28;20057;-72
2023/10/21 07:32:00;;;;;;;11.82;6.47;;;13.40;99.90;;;;;;5052515;28;20060;-73
2023/10/21 07:34:26;;;;;;;11.80;6.20;;;13.40;99.90;;;;;;5051213;28;20025;-74
2023/10/21 07:36:52;;;;;;;9.82;5.05;;;13.50;99.90;;;;;;5053064;28;20458;-74
2023/10/21 07:39:18;;;;;;;13.80;4.57;;;13.50;99.90;;;;;;5050759;28;20044;-74
2023/10/21 07:41:44;;;;;;;8.93;3.90;;;13.50;99.90;;;;;;5052442;28;20063;-74
2023/10/21 07:44:13;;;;;;;7.88;3.60;;;13.50;99.90;;;;;;5052555;28;20064;-74
2023/10/21 07:46:39;;;;;;;9.88;3.97;;;13.60;99.90;;;;;;5051305;28;20063;-74
2023/10/21 07:49:06;;;;;;;6.22;2.70;;;13.60;99.90;;;;;;5047404;28;20033;-74
2023/10/21 07:51:32;;;;;;;6.43;3.10;;;13.70;99.90;;;;;;5043118;28;20117;-74
2023/10/21 07:53:58;;;;;;;7.93;3.15;;;13.70;99.90;;;;;;5044261;28;20112;-74
2023/10/21 07:56:24;;;;;;;8.77;3.42;;;13.70;99.90;;;;;;5043995;28;20037;-74
2023/10/21 07:58:49;;;;;;;4.32;2.70;;;13.80;99.90;;;;;;5045688;28;20474;-74
2023/10/21 08:01:15;;;;;;;6.55;3.10;;;13.80;99.90;;;;;;5048256;28;20029;-75
2023/10/21 08:03:43;;;;;;;11.02;3.75;;;13.80;99.90;;;;;;5051774;28;20021;-75
2023/10/21 08:06:09;;;;;;;9.85;3.88;;;13.80;99.90;;;;;;5041322;28;20035;-75
2023/10/21 08:08:34;;;;;;;12.82;3.70;;;13.90;99.90;;;;;;5042495;28;20430;-74
2023/10/21 08:11:02;;;;;;;5.75;2.67;;;13.90;99.90;;;;;;5049012;28;20492;-73
2023/10/21 08:13:28;;;;;;;5.68;3.40;;;13.90;99.90;;;;;;5036651;28;20049;-74
2023/10/21 08:15:54;;;;;;;8.02;3.67;;;13.90;99.90;;;;;;5048690;28;20025;-74
2023/10/21 08:18:19;;;;;;;7.18;3.08;;;13.90;99.90;;;;;;5051394;28;20470;-75
2023/10/21 08:20:45;;;;;;;4.43;1.90;;;13.90;99.90;;;;;;5050657;28;20033;-75
2023/10/21 08:23:11;;;;;;;4.20;1.35;;;13.80;99.90;;;;;;5051364;28;20071;-75
2023/10/21 08:25:36;;;;;;;3.40;1.08;;;13.80;99.90;;;;;;5051967;28;20099;-76
2023/10/21 08:28:03;;;;;;;3.05;1.35;;;13.70;99.90;;;;;;5050385;28;20078;-76
2023/10/21 08:30:28;;;;;;;2.15;1.17;;;13.60;99.90;;;;;;5047846;28;20104;-75
2023/10/21 08:32:54;;;;;;;2.42;1.00;;;13.60;99.90;;;;;;5051144;28;20120;-76
2023/10/21 08:35:19;;;;;;;2.58;1.35;;;13.60;99.90;;;;;;5051747;28;20033;-75
2023/10/21 08:37:45;;;;;;;3.85;1.20;;;13.60;99.90;;;;;;5050530;28;20500;-75
2023/10/21 08:40:11;;;;;;;3.15;1.20;;;13.70;99.90;;;;;;5047302;28;20033;-76
2023/10/21 08:42:37;;;;;;;2.78;1.05;;;13.70;99.90;;;;;;5042845;28;20017;-75
2023/10/21 08:45:06;;;;;;;1.75;0.77;;;13.80;99.90;;;;;;5050801;28;20444;-74
2023/10/21 08:47:34;;;;;;;2.75;0.98;;;13.80;99.90;;;;;;5051090;28;20044;-75
2023/10/21 08:50:00;;;;;;;3.40;1.02;;;13.80;99.90;;;;;;5051280;28;20081;-74
2023/10/21 08:52:27;;;;;;;1.88;0.88;;;13.90;99.90;;;;;;5052806;28;20013;-75
2023/10/21 08:54:53;;;;;;;1.83;0.70;;;14.00;99.90;;;;;;5047522;28;20485;-74
2023/10/21 08:57:18;;;;;;;2.25;0.75;;;13.90;99.90;;;;;;5039484;28;20041;-74
2023/10/21 08:59:44;;;;;;;1.50;0.70;;;13.90;99.90;;;;;;5045380;28;20782;-74
2023/10/21 09:02:13;;;;;;;5.15;1.35;;;13.90;99.90;;;;;;5047080;28;20029;-74
2023/10/21 09:04:38;;;;;;;3.30;0.90;;;14.00;99.90;;;;;;5045117;28;20032;-74
2023/10/21 09:07:04;;;;;;;1.98;0.68;;;14.00;99.90;;;;;;5045820;28;20494;-74
2023/10/21 09:09:30;;;;;;;2.22;0.70;;;14.00;99.90;;;;;;5045134;28;20028;-74
2023/10/21 09:12:10;;;;;;;4.05;0.88;;;14.10;99.90;;;;;;5050661;28;20021;-74
2023/10/21 09:14:56;;;;;;;2.30;0.70;;;14.10;99.90;;;;;;5038418;28;20069;-74
2023/10/21 09:17:37;;;;;;;1.63;0.80;;;14.20;99.90;;;;;;5039656;28;20017;-74
2023/10/21 09:20:13;;;;;;;2.38;0.93;;;14.30;99.90;;;;;;5049048;28;20047;-73
2023/10/21 09:22:41;;;;;;;3.38;0.70;;;14.30;99.90;;;;;;5057151;28;20132;-74
2023/10/21 09:25:18;;;;;;;1.10;0.68;;;14.30;99.90;;;;;;5049066;28;20021;-73
2023/10/21 09:27:55;;;;;;;2.22;0.90;;;14.40;99.90;;;;;;5044050;28;20033;-74
2023/10/21 09:30:22;;;;;;;2.08;0.60;;;14.40;99.90;;;;;;5046328;28;20027;-73
2023/10/21 09:32:49;;;;;;;1.80;0.57;;;14.40;99.90;;;;;;5048622;28;20411;-74
2023/10/21 09:35:26;;;;;;;1.90;0.73;;;14.40;99.90;;;;;;5059125;28;20410;-74
2023/10/21 09:37:52;;;;;;;3.30;0.70;;;14.40;99.90;;;;;;5045207;28;20106;-73
2023/10/21 09:40:19;;;;;;;2.38;0.50;;;14.40;99.90;;;;;;5048567;28;20021;-73
2023/10/21 09:42:47;;;;;;;1.83;0.60;;;14.40;99.90;;;;;;5050007;28;20040;-73
2023/10/21 09:45:16;;;;;;;1.95;0.80;;;14.40;99.90;;;;;;5050893;28;20017;-73
2023/10/21 09:47:42;;;;;;;4.18;0.80;;;14.40;99.90;;;;;;5049013;28;20029;-73
2023/10/21 09:50:13;;;;;;;1.00;0.50;;;14.40;99.90;;;;;;5049850;28;20029;-73
2023/10/21 09:53:15;;;;;;;1.90;0.50;;;14.40;99.90;;;;;;5046430;28;20024;-72
2023/10/21 09:55:41;;;;;;;3.13;0.60;;;14.40;99.90;;;;;;5047555;28;20525;-73
2023/10/21 09:58:08;;;;;;;1.17;0.50;;;14.50;99.90;;;;;;5047786;28;20099;-73
2023/10/21 10:00:35;;;;;;;1.88;0.70;;;14.60;99.90;;;;;;5048194;28;20035;-72
2023/10/21 10:03:01;;;;;;;2.22;0.55;;;14.60;99.90;;;;;;5046278;28;20409;-73
2023/10/21 10:05:28;;;;;;;2.53;0.73;;;14.60;99.90;;;;;;5047290;28;20021;-73
2023/10/21 10:07:55;;;;;;;2.83;0.93;;;14.70;99.90;;;;;;5048494;28;20043;-72
2023/10/21 10:10:25;;;;;;;4.68;1.00;;;14.60;99.90;;;;;;5049655;28;20052;-73
2023/10/21 10:13:12;;;;;;;0.47;0.40;;;14.70;99.90;;;;;;5048545;28;20037;-73
2023/10/21 10:15:40;;;;;;;1.27;0.52;;;14.70;99.90;;;;;;5050308;28;20056;-73
2023/10/21 10:18:18;;;;;;;3.55;1.00;;;14.70;99.90;;;;;;5048223;28;20075;-72
2023/10/21 10:20:52;;;;;;;1.75;0.70;;;14.80;99.90;;;;;;5050489;28;20025;-73
2023/10/21 10:23:19;;;;;;;4.97;0.90;;;14.90;99.90;;;;;;5057477;28;20029;-73
2023/10/21 10:25:49;;;;;;;4.57;1.42;;;15.00;99.90;;;;;;5046890;28;20052;-72
2023/10/21 10:28:27;;;;;;;1.93;0.63;;;15.10;99.90;;;;;;5043400;28;20033;-74
2023/10/21 10:30:56;;;;;;;4.03;1.02;;;15.10;99.90;;;;;;5042312;28;20370;-73
2023/10/21 10:33:25;;;;;;;2.72;0.75;;;15.20;99.90;;;;;;5042326;28;20017;-73
2023/10/21 10:35:52;;;;;;;0.93;0.52;;;15.30;99.90;;;;;;5041893;28;20386;-73
2023/10/21 10:38:24;;;;;;;2.65;0.93;;;15.30;99.90;;;;;;5042511;28;20040;-73
2023/10/21 10:41:18;;;;;;;1.90;0.60;;;15.20;99.90;;;;;;5035385;28;20021;-75
2023/10/21 10:43:45;;;;;;;3.45;0.70;;;15.30;99.90;;;;;;5039885;28;20079;-74
2023/10/21 10:46:17;;;;;;;1.73;0.63;;;15.30;99.90;;;;;;5041753;28;20072;-73
2023/10/21 10:48:43;;;;;;;2.78;0.88;;;15.40;99.90;;;;;;5038705;28;20025;-73
2023/10/21 10:51:19;;;;;;;3.15;1.10;;;15.50;99.90;;;;;;5035096;28;20087;-74
2023/10/21 10:53:46;;;;;;;2.45;0.80;;;15.40;99.90;;;;;;5033721;28;20033;-73
2023/10/21 10:56:21;;;;;;;3.90;0.80;;;15.50;99.90;;;;;;5055827;28;20096;-73
2023/10/21 10:58:47;;;;;;;4.38;0.70;;;15.60;99.90;;;;;;5034274;28;20021;-73
2023/10/21 11:01:27;;;;;;;2.83;1.05;;;15.70;99.90;;;;;;5042218;28;20021;-73
2023/10/21 11:03:57;;;;;;;2.70;1.02;;;15.70;99.90;;;;;;5044862;28;20028;-72
2023/10/21 11:06:36;;;;;;;3.08;1.00;;;15.80;99.90;;;;;;5050507;28;20029;-72
2023/10/21 11:09:07;;;;;;;3.35;0.93;;;15.80;99.90;;;;;;5043606;28;20025;-72
2023/10/21 11:11:51;;;;;;;4.35;0.80;;;15.80;99.90;;;;;;5050229;28;20017;-73
2023/10/21 11:14:18;;;;;;;2.17;0.90;;;15.90;99.90;;;;;;5045015;28;20017;-73
2023/10/21 11:16:44;;;;;;;6.30;1.17;;;15.90;99.90;;;;;;5050238;28;20021;-73
2023/10/21 11:19:10;;;;;;;3.30;0.65;;;16.00;99.90;;;;;;5037105;28;20511;-74
2023/10/21 11:21:39;;;;;;;4.82;1.00;;;16.00;99.90;;;;;;5048834;28;20024;-73
2023/10/21 11:24:08;;;;;;;2.60;0.80;;;16.10;99.90;;;;;;5039714;28;20087;-73
2023/10/21 11:26:35;;;;;;;4.18;0.88;;;16.20;99.90;;;;;;5044054;28;20084;-73
2023/10/21 11:29:03;;;;;;;5.47;0.88;;;16.30;99.90;;;;;;5051250;28;20039;-72
2023/10/21 11:31:29;;;;;;;3.88;0.80;;;16.20;99.90;;;;;;5052763;28;20055;-72
2023/10/21 11:34:12;;;;;;;7.18;1.02;;;16.30;99.90;;;;;;5046045;28;20087;-72
2023/10/21 11:36:38;;;;;;;4.43;1.17;;;16.30;99.90;;;;;;5056256;28;20108;-72
2023/10/21 11:39:13;;;;;;;6.63;1.10;;;16.40;99.90;;;;;;5049922;28;20491;-73
2023/10/21 11:41:49;;;;;;;4.75;1.17;;;16.40;99.90;;;;;;5046314;28;20035;-73
2023/10/21 11:44:17;;;;;;;2.97;1.00;;;16.50;99.90;;;;;;5048015;28;20040;-73
2023/10/21 11:46:43;;;;;;;3.42;0.80;;;16.50;99.90;;;;;;5061730;28;20040;-73
2023/10/21 11:49:15;;;;;;;4.32;0.77;;;16.60;99.90;;;;;;5048109;28;20686;-73
2023/10/21 11:51:49;;;;;;;4.57;1.10;;;16.70;99.90;;;;;;5061230;28;20017;-73
2023/10/21 11:54:39;;;;;;;9.38;1.33;;;16.70;99.90;;;;;;5050723;28;20032;-73
2023/10/21 12:39:55;;;;;;;3.17;1.10;;;16.40;99.90;;;;;;4990833;28;20069;-73
2023/10/21 12:42:26;;;;;;;4.30;1.00;;;16.30;99.90;;;;;;4988797;28;20619;-72
2023/10/21 12:44:55;;;;;;;;;;;16.40;99.90;;;;;;4987734;28;20038;-73
2023/10/21 12:47:21;;;;;;;5.65;1.00;;;16.40;99.90;;;;;;5060033;28;20328;-73
2023/10/21 12:49:50;;;;;;;4.63;1.63;;;16.50;99.90;;;;;;5053025;28;20553;-72
2023/10/21 12:52:16;;;;;;;4.60;1.15;;;16.60;99.90;;;;;;5059103;28;20495;-73
2023/10/21 12:54:43;;;;;;;4.65;1.33;;;16.60;99.90;;;;;;5046863;28;20036;-73
2023/10/21 12:57:10;;;;;;;5.10;1.67;;;16.60;99.90;;;;;;5057307;28;20048;-73
2023/10/21 12:59:35;;;;;;;4.05;1.20;;;16.50;99.90;;;;;;5048848;28;20589;-73
2023/10/21 13:02:07;;;;;;;4.05;1.20;;;16.50;99.90;;;;;;5049631;28;20031;-73
2023/10/21 13:04:34;;;;;;;5.65;1.33;;;16.50;99.90;;;;;;5044951;28;20033;-72
2023/10/21 13:07:00;;;;;;;4.03;1.00;;;16.50;99.90;;;;;;5044722;28;20036;-72
2023/10/21 13:09:28;;;;;;;3.40;0.90;;;16.60;99.90;;;;;;5046209;28;20025;-73
2023/10/21 13:11:54;;;;;;;4.97;1.20;;;16.60;99.90;;;;;;5058881;28;20066;-72
2023/10/21 13:14:21;;;;;;;5.00;1.30;;;16.60;99.90;;;;;;5052040;28;20440;-73
2023/10/21 13:16:47;;;;;;;6.22;1.30;;;16.60;99.90;;;;;;5053055;28;20414;-72
2023/10/21 13:19:14;;;;;;;5.70;1.23;;;16.70;99.90;;;;;;5044743;28;20024;-73
2023/10/21 13:21:40;;;;;;;5.93;1.40;;;16.70;99.90;;;;;;5052342;28;20028;-72
2023/10/21 13:24:06;;;;;;;6.03;1.40;;;16.70;99.90;;;;;;5048128;28;20035;-74
2023/10/21 13:26:32;;;;;;;5.50;1.63;;;16.70;99.90;;;;;;5046552;28;20490;-72